Junebug Jog

Winfield , KS

Race Results

1 Mile

Saturday, Jun 8, 2019

Results are: Official

Participants 55
Finishers 55
Pace 16:58/mile
Average Time 00:16:59
 
 
Place Name Sex Sex Place Age Age Place Gun Time Chip Time Pace Last Seen At Start Time
1 JAMES BRAUN (# 165) M 1 11 1st Overall 00:06:32 6:31/mile Finish 7:34 AM
2 JASON BRAUN (# 161) M 2 46 1 / 3 00:06:35 6:34/mile Finish 7:34 AM
3 HAYLIE TURNER (# 154) F 1 9 1st Overall 00:08:04 8:03/mile Finish 7:34 AM
4 TODD PETER (# 163) M 3 40 2 / 3 00:08:37 8:36/mile Finish 7:34 AM
5 NOAH HARPER (# 114) M 4 12 1 / 2 00:08:49 8:48/mile Finish 7:34 AM
6 DANIEL CARTER (# 104) M 5 27 1 / 1 00:09:19 9:18/mile Finish 7:34 AM
7 MARY ELLIS (# 108) F 2 29 1 / 2 00:09:20 9:19/mile Finish 7:34 AM
8 KARALIESE WOOD (# 160) F 3 6 1 / 13 00:09:20 9:19/mile Finish 7:34 AM
9 JOE WOOD (# 159) M 6 36 1 / 5 00:09:21 9:20/mile Finish 7:34 AM
10 HATTIE SMITH (# 150) F 4 5 2 / 13 00:09:21 9:20/mile Finish 7:34 AM
11 ANDREA MCNOWN (# 143) F 5 52 1 / 2 00:09:40 9:39/mile Finish 7:34 AM
12 JAKE CURRAN (# 105) M 7 9 1 / 8 00:09:53 9:52/mile Finish 7:34 AM
13 ANNABELLE WOOD (# 157) F 6 7 3 / 13 00:09:55 9:54/mile Finish 7:34 AM
14 SOFIA MILLER (# 145) F 7 7 4 / 13 00:09:55 9:54/mile Finish 7:34 AM
15 BRAE WOOD (# 158) F 8 35 1 / 7 00:09:56 9:55/mile Finish 7:34 AM
16 CARSYN THARP (# 153) M 8 8 2 / 8 00:10:09 10:08/mile Finish 7:34 AM
17 BAILEY HAUNSCHILD (# 115) F 9 16 1 / 1 00:10:11 10:10/mile Finish 7:34 AM
18 ETHAN FERGUSON (# 110) M 9 8 3 / 8 00:10:18 10:17/mile Finish 7:34 AM
19 CORY HELMER (# 127) M 10 41 3 / 3 00:10:18 10:17/mile Finish 7:34 AM
20 CADENCE LATHAM (# 132) F 10 9 5 / 13 00:10:29 10:28/mile Finish 7:34 AM
21 HANS HELMER (# 128) M 11 7 4 / 8 00:10:30 10:29/mile Finish 7:34 AM
22 CARRIE HELMER (# 126) F 11 40 1 / 3 00:10:30 10:29/mile Finish 7:34 AM
23 BROOKE HAUNSCHILD (# 116) F 12 12 1 / 2 00:10:49 10:48/mile Finish 7:34 AM
24 BAYLIE MCDERMOTT (# 141) F 13 8 6 / 13 00:10:49 10:48/mile Finish 7:34 AM
25 KARLA MCDERMOTT (# 142) F 14 43 2 / 3 00:10:52 10:51/mile Finish 7:34 AM
    Page:     Next >   Last >>